ePrivacy and GPDR Cookie Consent by Cookie Consent
EmailTwitter


Observations de surface / Canada / CYYZ (71624)

Régions: Québec | Canada | États-Unis | Europe | France | UK | Ailleurs
Station
Affichage
Infos & localisation pour CYYZ (71624) | Aide pour décoder les METARs

Observations prises le 2022-10-04 à 01H00 UTC à TORONTO A, ON (CYYZ)

Etat du ciel: ciel variable.

Température: 11.0 Celsius

Point de rosée: 4.0 Celsius

Humidité relative: 62%

Vents: Sud-est à 6 km/h ou 3 noeuds.

Pression au niveau moyen de la mer: 102.65 kilopascals.

Calage altimétrique: 102.61 kilopascals ou 30.30 pouces de mercure.

Visibilité horizontale: 15.00 milles terrestres ou 24.00 kilomètres.

Observation METAR:

CYYZ 040100Z 15003KT 15SM SCT180 11/04 A3030 RMK AC3 SLP265=